Time;durP1;ratioP1;P1;durP2;ratioP2;P2;SDS_P1;SDS_P2;PMS_P1;PMS_P2;Temp;Humidity;BMP_temperature;BMP_pressure;BME280_temperature;BME280_humidity;BME280_pressure;Samples;Min_cycle;Max_cycle;Signal;HPM_P1;HPM_P2
2022/01/06 00:00:36;;;;;;;9.48;3.35;;;4.70;85.50;;;;;;5051643;28;20025;-73
2022/01/06 00:03:05;;;;;;;7.72;3.42;;;4.60;85.50;;;;;;5031520;28;20029;-74
2022/01/06 00:05:33;;;;;;;6.80;3.10;;;4.60;86.40;;;;;;5048282;28;20025;-73
2022/01/06 00:08:02;;;;;;;7.45;3.60;;;4.60;86.40;;;;;;5033142;28;20022;-75
2022/01/06 00:10:31;;;;;;;6.90;3.30;;;4.60;87.10;;;;;;5033361;28;20100;-74
2022/01/06 00:15:37;;;;;;;7.30;3.65;;;4.60;87.80;;;;;;5033100;28;20534;-73
2022/01/06 00:26:10;;;;;;;9.18;3.40;;;4.60;88.30;;;;;;5045563;28;20402;-75
2022/01/06 00:28:39;;;;;;;8.05;3.35;;;4.60;88.40;;;;;;5031142;28;20068;-72
2022/01/06 00:31:07;;;;;;;6.78;3.22;;;4.60;88.50;;;;;;5034328;28;20042;-74
2022/01/06 00:33:37;;;;;;;4.07;3.28;;;4.60;88.50;;;;;;5032910;28;20017;-73
2022/01/06 00:36:03;;;;;;;6.82;3.15;;;4.60;88.20;;;;;;5048113;28;20056;-74
2022/01/06 00:38:31;;;;;;;7.68;3.33;;;4.60;88.10;;;;;;5047896;28;20387;-74
2022/01/06 00:41:02;;;;;;;8.30;3.40;;;4.60;88.30;;;;;;5048024;28;20038;-74
2022/01/06 00:43:30;;;;;;;6.47;3.13;;;4.70;88.40;;;;;;5033083;28;20021;-74
2022/01/06 00:45:56;;;;;;;4.53;2.83;;;4.70;88.50;;;;;;5051485;28;20506;-74
2022/01/06 00:48:24;;;;;;;7.22;3.00;;;4.70;88.60;;;;;;5051612;28;20112;-73
2022/01/06 00:50:51;;;;;;;4.30;2.60;;;4.70;88.60;;;;;;5051448;28;20014;-73
2022/01/06 00:53:17;;;;;;;6.10;3.15;;;4.70;88.60;;;;;;5036039;28;20100;-73
2022/01/06 00:55:44;;;;;;;5.68;2.92;;;4.80;89.80;;;;;;5035572;28;20061;-74
2022/01/06 00:58:13;;;;;;;6.97;2.75;;;4.80;89.00;;;;;;5051425;28;20029;-73
2022/01/06 01:00:40;;;;;;;6.05;3.08;;;4.80;89.10;;;;;;5036031;28;20100;-72
2022/01/06 01:03:34;;;;;;;5.60;2.63;;;4.80;89.00;;;;;;5035967;28;20022;-72
2022/01/06 01:06:01;;;;;;;2.90;2.50;;;4.80;89.10;;;;;;5036229;28;20394;-73
2022/01/06 01:08:28;;;;;;;4.15;2.40;;;4.80;88.80;;;;;;5035879;28;20022;-73
2022/01/06 01:10:55;;;;;;;4.30;2.80;;;4.80;88.70;;;;;;5051224;28;20104;-72
2022/01/06 01:13:32;;;;;;;4.63;2.40;;;4.80;88.80;;;;;;5034544;28;20401;-73
2022/01/06 01:16:10;;;;;;;5.72;2.78;;;4.80;89.30;;;;;;5035559;28;20463;-72
2022/01/06 01:18:45;;;;;;;6.43;2.72;;;4.80;89.30;;;;;;5049800;28;20486;-73
2022/01/06 01:21:12;;;;;;;4.18;3.00;;;4.70;89.70;;;;;;5035727;28;20071;-73
2022/01/06 01:23:40;;;;;;;7.28;2.65;;;4.70;90.00;;;;;;5034348;28;20030;-73
2022/01/06 01:26:08;;;;;;;4.03;1.98;;;4.70;90.20;;;;;;5035526;28;20052;-73
2022/01/06 01:28:44;;;;;;;4.00;2.20;;;4.70;90.40;;;;;;5050796;28;20113;-73
2022/01/06 01:31:31;;;;;;;5.38;1.63;;;4.80;90.40;;;;;;5035778;28;20079;-75
2022/01/06 01:34:06;;;;;;;3.28;1.85;;;4.90;90.40;;;;;;5048228;28;20093;-73
2022/01/06 01:36:35;;;;;;;6.75;1.58;;;4.90;90.50;;;;;;5035704;28;20052;-74
2022/01/06 01:39:06;;;;;;;2.42;1.42;;;5.00;90.50;;;;;;5050544;28;20025;-74
2022/01/06 01:41:32;;;;;;;5.47;2.28;;;5.00;90.60;;;;;;5035500;28;20063;-73
2022/01/06 01:43:58;;;;;;;3.97;1.60;;;5.00;90.70;;;;;;5050569;28;20170;-74
2022/01/06 01:46:30;;;;;;;6.90;1.75;;;5.00;90.60;;;;;;5050539;28;20069;-74
2022/01/06 01:51:41;;;;;;;6.95;1.52;;;5.00;90.50;;;;;;5048668;28;20025;-73
2022/01/06 01:54:10;;;;;;;3.40;1.40;;;5.00;90.50;;;;;;5033693;28;20056;-74
2022/01/06 01:56:39;;;;;;;3.63;1.60;;;5.00;90.60;;;;;;5033421;28;20049;-73
2022/01/06 01:59:05;;;;;;;5.95;1.50;;;5.00;90.70;;;;;;5050295;28;20036;-74
2022/01/06 02:01:32;;;;;;;2.85;1.48;;;5.00;90.70;;;;;;5050296;28;20017;-73
2022/01/06 02:04:02;;;;;;;2.88;1.50;;;5.00;90.80;;;;;;5033410;28;20026;-73
2022/01/06 02:06:29;;;;;;;3.10;1.38;;;5.00;90.80;;;;;;5034887;28;20029;-73
2022/01/06 02:08:56;;;;;;;1.30;1.20;;;5.00;90.90;;;;;;5034974;28;20032;-73
2022/01/06 02:11:24;;;;;;;2.65;1.42;;;5.00;90.80;;;;;;5034733;28;20021;-73
2022/01/06 02:14:07;;;;;;;2.10;1.40;;;5.00;90.80;;;;;;5049887;28;20025;-73
2022/01/06 02:16:37;;;;;;;2.70;1.27;;;5.10;90.70;;;;;;5034651;28;20097;-73
2022/01/06 02:19:05;;;;;;;3.60;1.83;;;5.10;90.70;;;;;;5037213;28;20498;-73
2022/01/06 02:21:41;;;;;;;2.53;1.52;;;5.10;91.10;;;;;;5039462;28;20025;-74
2022/01/06 02:24:08;;;;;;;3.83;1.92;;;5.10;91.10;;;;;;5054408;28;20133;-74
2022/01/06 02:26:36;;;;;;;4.35;1.75;;;5.10;91.50;;;;;;5054236;28;20029;-73
2022/01/06 02:29:08;;;;;;;6.97;2.30;;;5.10;91.70;;;;;;5034537;28;20029;-73
2022/01/06 02:31:46;;;;;;;3.47;1.60;;;5.20;91.90;;;;;;5049263;28;20076;-73
2022/01/06 02:34:14;;;;;;;7.50;1.85;;;5.30;92.30;;;;;;5034241;28;20114;-73
2022/01/06 02:36:42;;;;;;;4.88;2.05;;;5.30;92.10;;;;;;5033951;28;20090;-73
2022/01/06 02:39:09;;;;;;;3.92;1.85;;;5.30;92.10;;;;;;5034479;28;20032;-71
2022/01/06 02:41:36;;;;;;;2.72;1.80;;;5.30;91.90;;;;;;5049374;28;20085;-75
2022/01/06 02:44:03;;;;;;;7.18;1.65;;;5.30;91.40;;;;;;5049209;28;20036;-73
2022/01/06 02:46:31;;;;;;;5.65;1.73;;;5.30;91.70;;;;;;5034486;28;20037;-74
2022/01/06 02:48:59;;;;;;;6.38;1.55;;;5.10;92.50;;;;;;5034056;28;20021;-74
2022/01/06 02:51:28;;;;;;;3.20;1.40;;;5.00;93.30;;;;;;5034033;28;20026;-74
2022/01/06 02:53:54;;;;;;;11.68;1.65;;;4.90;94.00;;;;;;5033989;28;20143;-73
2022/01/06 02:56:21;;;;;;;3.65;1.33;;;4.70;94.40;;;;;;5033463;28;20527;-73
2022/01/06 02:58:48;;;;;;;3.58;1.10;;;4.60;94.70;;;;;;5033927;28;20032;-74
2022/01/06 03:01:14;;;;;;;4.35;1.55;;;4.40;95.20;;;;;;5034025;28;20096;-73
2022/01/06 03:03:39;;;;;;;1.77;1.10;;;4.40;96.30;;;;;;5049145;28;20494;-73
2022/01/06 03:06:06;;;;;;;3.67;1.23;;;4.30;97.10;;;;;;5048163;28;20027;-73
2022/01/06 03:08:35;;;;;;;5.15;1.38;;;4.20;97.70;;;;;;5033558;28;20036;-73
2022/01/06 03:11:06;;;;;;;11.32;1.50;;;4.20;98.30;;;;;;5048776;28;20022;-73
2022/01/06 03:13:32;;;;;;;10.45;1.52;;;4.20;98.10;;;;;;5034058;28;20486;-73
2022/01/06 03:16:01;;;;;;;5.75;1.77;;;4.10;98.30;;;;;;5033410;28;20021;-73
2022/01/06 03:18:29;;;;;;;3.38;1.27;;;4.10;98.90;;;;;;5033490;28;20025;-74
2022/01/06 03:20:57;;;;;;;3.28;1.23;;;4.10;99.30;;;;;;5033516;28;20482;-73
2022/01/06 03:23:24;;;;;;;3.47;1.50;;;4.10;99.60;;;;;;5033645;28;20029;-75
2022/01/06 03:25:50;;;;;;;8.55;2.13;;;4.10;99.70;;;;;;5033383;28;20029;-73
2022/01/06 03:28:32;;;;;;;4.25;1.48;;;4.00;99.80;;;;;;5033664;28;20071;-73
2022/01/06 03:31:01;;;;;;;4.85;1.35;;;4.00;99.90;;;;;;5048758;28;20505;-73
2022/01/06 03:33:28;;;;;;;6.70;1.65;;;4.00;99.90;;;;;;5048674;28;20195;-74
2022/01/06 03:35:56;;;;;;;6.88;1.45;;;4.00;99.90;;;;;;5048606;28;20025;-73
2022/01/06 03:38:24;;;;;;;3.63;1.65;;;4.10;99.90;;;;;;5048573;28;20025;-74
2022/01/06 03:40:51;;;;;;;9.10;2.90;;;4.00;99.90;;;;;;5048496;28;20026;-74
2022/01/06 03:43:19;;;;;;;6.15;1.85;;;4.10;99.90;;;;;;5031985;28;20151;-74
2022/01/06 03:45:54;;;;;;;7.20;2.20;;;4.00;99.90;;;;;;5033277;28;20093;-73
2022/01/06 03:48:21;;;;;;;4.18;1.52;;;4.00;99.90;;;;;;5032518;28;20390;-73
2022/01/06 03:50:48;;;;;;;7.82;3.22;;;4.00;99.90;;;;;;5033111;28;20021;-72
2022/01/06 03:53:15;;;;;;;5.05;2.35;;;4.00;99.90;;;;;;5032905;28;20075;-74
2022/01/06 03:55:42;;;;;;;4.45;1.80;;;3.90;99.90;;;;;;5032961;28;20045;-74
2022/01/06 03:58:11;;;;;;;7.97;2.20;;;4.00;99.90;;;;;;5033134;28;20104;-74
2022/01/06 04:00:38;;;;;;;6.15;1.90;;;4.00;99.90;;;;;;5032901;28;20024;-73
2022/01/06 04:03:06;;;;;;;5.43;1.77;;;4.00;99.90;;;;;;5033071;28;20079;-74
2022/01/06 04:05:34;;;;;;;11.57;2.13;;;4.00;99.90;;;;;;5048083;28;20068;-73
2022/01/06 04:08:04;;;;;;;5.78;2.15;;;4.00;99.90;;;;;;5032660;28;20478;-73
2022/01/06 04:10:31;;;;;;;6.80;2.63;;;4.00;99.90;;;;;;5048096;28;20026;-73
2022/01/06 04:12:59;;;;;;;3.20;1.92;;;4.00;99.90;;;;;;5032712;28;20471;-74
2022/01/06 04:15:27;;;;;;;5.32;2.38;;;4.10;99.90;;;;;;5047935;28;20120;-74
2022/01/06 04:17:54;;;;;;;4.78;2.58;;;4.10;99.90;;;;;;5035088;28;20563;-73
2022/01/06 04:20:22;;;;;;;2.88;1.98;;;4.20;99.90;;;;;;5036797;28;20035;-74
2022/01/06 04:22:48;;;;;;;5.32;2.70;;;4.20;99.90;;;;;;5049512;28;20021;-73
2022/01/06 04:25:16;;;;;;;3.92;2.67;;;4.20;99.90;;;;;;5056542;28;20017;-73
2022/01/06 04:27:57;;;;;;;5.38;2.72;;;4.20;99.90;;;;;;5056444;28;20016;-74
2022/01/06 04:30:24;;;;;;;4.00;2.10;;;4.30;99.90;;;;;;5051824;28;20045;-73
2022/01/06 04:32:50;;;;;;;6.45;2.40;;;4.20;99.90;;;;;;5035202;28;20055;-73
2022/01/06 04:35:18;;;;;;;3.13;2.20;;;4.20;99.90;;;;;;5035298;28;20041;-74
2022/01/06 04:37:45;;;;;;;5.57;2.58;;;4.20;99.90;;;;;;5051280;28;20036;-73
2022/01/06 04:40:11;;;;;;;3.70;1.98;;;4.30;99.90;;;;;;5056402;28;20069;-74
2022/01/06 04:42:40;;;;;;;4.88;1.55;;;4.20;99.90;;;;;;5056789;28;20021;-73
2022/01/06 04:45:07;;;;;;;4.05;1.20;;;4.20;99.60;;;;;;5056479;28;20048;-73
2022/01/06 04:47:34;;;;;;;2.92;1.42;;;4.20;99.50;;;;;;5056356;28;20044;-73
2022/01/06 04:50:01;;;;;;;6.07;1.73;;;4.20;99.10;;;;;;5056359;28;20028;-72
2022/01/06 04:52:26;;;;;;;1.33;1.10;;;4.20;99.00;;;;;;5056229;28;20025;-74
2022/01/06 04:54:53;;;;;;;3.58;1.38;;;4.10;98.70;;;;;;5055776;28;20400;-73
2022/01/06 04:57:19;;;;;;;1.38;1.08;;;4.10;98.90;;;;;;5056262;28;20032;-74
2022/01/06 04:59:45;;;;;;;2.17;1.00;;;4.10;98.60;;;;;;5071575;28;20025;-74
2022/01/06 05:02:14;;;;;;;3.67;1.35;;;4.00;98.40;;;;;;5071166;28;20116;-74
2022/01/06 05:04:42;;;;;;;3.90;1.25;;;4.00;98.40;;;;;;5055992;28;20029;-74
2022/01/06 05:07:09;;;;;;;2.15;0.88;;;4.00;98.60;;;;;;5071280;28;20025;-73
2022/01/06 05:09:37;;;;;;;7.07;1.70;;;3.90;98.60;;;;;;5055903;28;20021;-74
2022/01/06 05:12:04;;;;;;;3.10;1.30;;;3.90;98.40;;;;;;5056046;28;20022;-73
2022/01/06 05:14:32;;;;;;;3.60;1.90;;;3.90;98.50;;;;;;5054596;28;20016;-74
2022/01/06 05:17:00;;;;;;;5.97;2.13;;;3.90;98.60;;;;;;5071067;28;20033;-74
2022/01/06 05:19:27;;;;;;;4.93;1.67;;;3.90;98.70;;;;;;5055662;28;20033;-75
2022/01/06 05:21:53;;;;;;;3.80;1.83;;;3.90;98.80;;;;;;5070827;28;20033;-72
2022/01/06 05:24:25;;;;;;;7.00;2.08;;;3.90;98.70;;;;;;5055497;28;20021;-72
2022/01/06 05:27:10;;;;;;;5.43;2.00;;;3.90;98.50;;;;;;5070795;28;20021;-74
2022/01/06 05:29:39;;;;;;;5.15;1.60;;;3.90;98.70;;;;;;5054754;28;20017;-73
2022/01/06 05:32:07;;;;;;;5.25;1.85;;;3.80;98.40;;;;;;5070550;28;20036;-74
2022/01/06 05:34:35;;;;;;;4.93;2.67;;;3.80;98.70;;;;;;5070658;28;20367;-74
2022/01/06 05:37:01;;;;;;;5.35;1.77;;;3.80;98.90;;;;;;5070797;28;20024;-74
2022/01/06 05:39:29;;;;;;;5.03;2.10;;;3.70;99.00;;;;;;5069393;28;20048;-73
2022/01/06 05:41:56;;;;;;;2.78;2.10;;;3.80;99.00;;;;;;5055373;28;20064;-73
2022/01/06 05:44:25;;;;;;;5.00;2.42;;;3.80;98.80;;;;;;5055115;28;20116;-75
2022/01/06 05:46:54;;;;;;;3.58;2.30;;;3.80;98.90;;;;;;5055232;28;20024;-74
2022/01/06 05:49:20;;;;;;;9.43;2.63;;;3.90;98.90;;;;;;5070536;28;20100;-73
2022/01/06 05:51:48;;;;;;;4.57;2.50;;;3.90;98.60;;;;;;5070517;28;20018;-74
2022/01/06 05:54:15;;;;;;;4.13;2.40;;;3.90;98.30;;;;;;5055223;28;20382;-74
2022/01/06 05:56:42;;;;;;;6.20;2.45;;;3.90;98.10;;;;;;5070082;28;20131;-74
2022/01/06 05:59:10;;;;;;;3.35;2.08;;;3.90;97.80;;;;;;5070365;28;20090;-74
2022/01/06 06:01:39;;;;;;;5.32;2.45;;;3.90;97.30;;;;;;5054827;28;20021;-74
2022/01/06 06:04:05;;;;;;;6.13;1.88;;;3.90;97.30;;;;;;5054790;28;20524;-74
2022/01/06 06:06:32;;;;;;;5.35;2.20;;;3.80;97.20;;;;;;5055009;28;20021;-73
2022/01/06 06:08:58;;;;;;;4.47;1.90;;;3.70;97.30;;;;;;5054597;28;20021;-73
2022/01/06 06:11:25;;;;;;;5.07;2.25;;;3.60;97.60;;;;;;5069976;28;20028;-73
2022/01/06 06:13:52;;;;;;;12.57;2.72;;;3.60;98.10;;;;;;5069796;28;20056;-73
2022/01/06 06:16:18;;;;;;;6.82;2.60;;;3.60;98.10;;;;;;5054315;28;20051;-73
2022/01/06 06:18:45;;;;;;;7.57;2.60;;;3.60;98.10;;;;;;5054336;28;20033;-72
2022/01/06 06:21:13;;;;;;;5.18;2.42;;;3.70;98.30;;;;;;5054362;28;20496;-74
2022/01/06 06:23:39;;;;;;;3.50;2.45;;;3.70;98.20;;;;;;5069716;28;20025;-74
2022/01/06 06:26:06;;;;;;;7.40;2.17;;;3.70;98.20;;;;;;5068380;28;20040;-74
2022/01/06 06:28:34;;;;;;;7.32;2.65;;;3.80;97.90;;;;;;5069518;28;20029;-74
2022/01/06 06:31:00;;;;;;;3.90;2.08;;;3.80;97.90;;;;;;5054791;28;20025;-74
2022/01/06 06:33:26;;;;;;;4.00;1.65;;;3.90;98.00;;;;;;5055169;28;20155;-74
2022/01/06 06:35:53;;;;;;;5.50;2.08;;;3.90;98.00;;;;;;5070652;28;20070;-75
2022/01/06 06:38:21;;;;;;;4.15;1.58;;;3.90;97.50;;;;;;5055695;28;20021;-73
2022/01/06 06:40:49;;;;;;;2.47;2.00;;;3.80;96.80;;;;;;5069875;28;20047;-72
2022/01/06 06:43:17;;;;;;;2.90;1.70;;;3.80;96.70;;;;;;5053951;28;20048;-72
2022/01/06 06:45:47;;;;;;;6.93;3.22;;;3.70;96.30;;;;;;5069141;28;20549;-72
2022/01/06 06:48:15;;;;;;;3.20;1.73;;;3.70;95.70;;;;;;5068520;28;20037;-72
2022/01/06 06:50:42;;;;;;;3.00;1.73;;;3.60;95.70;;;;;;5069064;28;20567;-73
2022/01/06 06:53:09;;;;;;;2.15;1.50;;;3.60;95.80;;;;;;5069143;28;20052;-73
2022/01/06 06:55:37;;;;;;;6.00;2.28;;;3.50;96.10;;;;;;5068982;28;20490;-73
2022/01/06 06:58:05;;;;;;;3.85;1.88;;;3.50;95.90;;;;;;5054003;28;20017;-73
2022/01/06 07:00:32;;;;;;;2.95;1.60;;;3.50;96.10;;;;;;5069128;28;20417;-75
2022/01/06 07:02:59;;;;;;;3.05;1.73;;;3.40;96.10;;;;;;5053608;28;20029;-74
2022/01/06 07:05:27;;;;;;;8.18;1.85;;;3.50;96.20;;;;;;5068796;28;20029;-73
2022/01/06 07:07:56;;;;;;;2.20;1.95;;;3.40;96.30;;;;;;5053497;28;20050;-73
2022/01/06 07:10:24;;;;;;;3.53;2.17;;;3.40;96.20;;;;;;5068862;28;20055;-73
2022/01/06 07:12:52;;;;;;;10.38;2.42;;;3.50;96.40;;;;;;5052146;28;20028;-73
2022/01/06 07:15:20;;;;;;;4.18;2.25;;;3.40;96.20;;;;;;5053475;28;20068;-73
2022/01/06 07:17:47;;;;;;;3.35;2.00;;;3.40;96.20;;;;;;5053388;28;20466;-73
2022/01/06 07:20:14;;;;;;;5.82;2.70;;;3.50;96.10;;;;;;5068630;28;20020;-73
2022/01/06 07:22:41;;;;;;;4.93;2.10;;;3.40;96.10;;;;;;5053305;28;20028;-73
2022/01/06 07:25:09;;;;;;;2.85;1.80;;;3.50;96.10;;;;;;5068082;28;20041;-73
2022/01/06 07:27:36;;;;;;;4.10;2.20;;;3.40;96.00;;;;;;5053489;28;20013;-74
2022/01/06 07:30:03;;;;;;;6.78;2.22;;;3.40;96.10;;;;;;5053151;28;20024;-74
2022/01/06 07:32:30;;;;;;;6.78;2.22;;;3.40;96.00;;;;;;5068449;28;20032;-73
2022/01/06 07:34:57;;;;;;;4.68;2.25;;;3.40;95.90;;;;;;5068318;28;20482;-71
2022/01/06 07:37:25;;;;;;;3.13;1.92;;;3.40;96.00;;;;;;5068436;28;20032;-72
2022/01/06 07:39:53;;;;;;;6.05;2.22;;;3.50;96.10;;;;;;5068361;28;20028;-73
2022/01/06 07:42:22;;;;;;;5.30;2.55;;;3.50;96.10;;;;;;5052887;28;20032;-72
2022/01/06 07:44:49;;;;;;;5.03;1.90;;;3.50;95.90;;;;;;5051475;28;20095;-72
2022/01/06 07:47:17;;;;;;;5.43;2.30;;;3.50;95.30;;;;;;5052979;28;20017;-71
2022/01/06 07:49:51;;;;;;;4.38;2.45;;;3.50;95.20;;;;;;5052888;28;20124;-71
2022/01/06 07:52:18;;;;;;;3.45;1.90;;;3.50;95.00;;;;;;5057503;28;20029;-71
2022/01/06 07:54:45;;;;;;;5.05;1.85;;;3.50;95.10;;;;;;5057197;28;20049;-71
2022/01/06 07:57:14;;;;;;;2.65;1.85;;;3.60;95.20;;;;;;5084592;28;20041;-73
2022/01/06 07:59:40;;;;;;;5.38;2.22;;;3.60;95.10;;;;;;5061204;28;20107;-72
2022/01/06 08:02:09;;;;;;;4.25;1.88;;;3.70;95.00;;;;;;5063531;28;20036;-71
2022/01/06 08:04:36;;;;;;;5.72;2.78;;;3.70;94.80;;;;;;5067642;28;20104;-79
2022/01/06 08:07:05;;;;;;;3.03;1.70;;;3.80;94.30;;;;;;5066992;28;20035;-78
2022/01/06 08:09:32;;;;;;;2.97;1.70;;;3.80;93.50;;;;;;5073403;28;20084;-75
2022/01/06 08:11:58;;;;;;;6.57;2.33;;;3.80;93.00;;;;;;5054389;28;20398;-77
2022/01/06 08:14:24;;;;;;;5.18;1.52;;;3.90;92.90;;;;;;5067597;28;20029;-78
2022/01/06 08:16:50;;;;;;;4.30;1.77;;;3.90;92.30;;;;;;5057614;28;20420;-72
2022/01/06 08:19:24;;;;;;;2.50;1.75;;;4.00;91.70;;;;;;5078789;28;20490;-72
2022/01/06 08:21:52;;;;;;;4.18;3.28;;;4.00;91.50;;;;;;5055951;28;20041;-75
2022/01/06 08:24:18;;;;;;;2.53;1.70;;;4.00;91.70;;;;;;5084829;28;20398;-75
2022/01/06 08:26:45;;;;;;;5.13;1.80;;;4.00;91.60;;;;;;5073755;28;20037;-70
2022/01/06 08:29:12;;;;;;;5.35;2.08;;;4.00;91.30;;;;;;5077757;28;20013;-74
2022/01/06 08:31:42;;;;;;;3.90;1.85;;;4.10;91.20;;;;;;5048242;28;20037;-76
2022/01/06 08:34:12;;;;;;;6.25;2.17;;;4.10;90.80;;;;;;5044367;28;20029;-76
2022/01/06 08:36:39;;;;;;;3.17;1.88;;;4.10;90.20;;;;;;5057358;28;20021;-77
2022/01/06 08:39:06;;;;;;;9.90;2.83;;;4.10;90.20;;;;;;5064112;28;20029;-77
2022/01/06 08:41:35;;;;;;;4.30;3.15;;;4.10;90.20;;;;;;5049639;28;20044;-74
2022/01/06 08:44:02;;;;;;;3.83;1.60;;;4.20;89.50;;;;;;5085243;28;20349;-86
2022/01/06 08:46:29;;;;;;;3.95;1.88;;;4.20;89.70;;;;;;5050387;28;20520;-77
2022/01/06 08:48:58;;;;;;;2.83;1.50;;;4.20;88.30;;;;;;5064154;28;20044;-78
2022/01/06 08:51:24;;;;;;;5.22;1.80;;;4.30;88.50;;;;;;5054691;28;20026;-76
2022/01/06 08:53:50;;;;;;;4.05;1.48;;;4.30;88.60;;;;;;5050508;28;20029;-75
2022/01/06 08:56:16;;;;;;;3.05;1.65;;;4.30;87.50;;;;;;5066687;28;20051;-74
2022/01/06 08:58:43;;;;;;;6.00;1.83;;;4.30;87.20;;;;;;5068708;28;20359;-74
2022/01/06 09:01:10;;;;;;;4.05;2.20;;;4.30;87.50;;;;;;5055461;28;20041;-72
2022/01/06 09:03:38;;;;;;;6.35;2.03;;;4.30;87.70;;;;;;5060314;28;20044;-74
2022/01/06 09:06:06;;;;;;;2.95;1.42;;;4.30;87.50;;;;;;5070758;28;20115;-74
2022/01/06 09:08:32;;;;;;;3.03;1.98;;;4.40;87.50;;;;;;5052367;28;20059;-73
2022/01/06 09:11:23;;;;;;;5.63;1.75;;;4.40;87.60;;;;;;5054907;28;20100;-74
2022/01/06 09:13:50;;;;;;;4.32;1.90;;;4.50;85.00;;;;;;5045829;28;20033;-74
2022/01/06 09:16:17;;;;;;;3.20;1.58;;;4.50;81.60;;;;;;5068269;28;20025;-73
2022/01/06 09:18:43;;;;;;;2.65;1.67;;;4.40;81.20;;;;;;5052782;28;20045;-74
2022/01/06 09:21:09;;;;;;;6.13;2.05;;;4.40;80.60;;;;;;5061605;28;20026;-73
2022/01/06 09:23:46;;;;;;;1.92;1.35;;;4.40;79.50;;;;;;5033341;28;20049;-74
2022/01/06 09:26:14;;;;;;;2.80;1.92;;;4.40;77.40;;;;;;5034261;28;20033;-74
2022/01/06 09:28:46;;;;;;;4.50;1.13;;;4.30;75.70;;;;;;5050479;28;20460;-73
2022/01/06 09:31:13;;;;;;;;;;;4.30;73.80;;;;;;5070707;28;20536;-73
2022/01/06 09:33:42;;;;;;;2.47;1.00;;;4.20;73.10;;;;;;5070507;28;19916;-73
2022/01/06 09:36:08;;;;;;;2.08;1.17;;;4.10;73.10;;;;;;5053912;28;20063;-73
2022/01/06 09:38:36;;;;;;;1.83;0.93;;;4.00;72.30;;;;;;5054364;28;20025;-73
2022/01/06 09:41:10;;;;;;;1.73;1.23;;;4.00;73.00;;;;;;5054224;28;20470;-72
2022/01/06 09:43:41;;;;;;;2.45;1.25;;;3.90;73.00;;;;;;5054773;28;20048;-72
2022/01/06 09:46:10;;;;;;;4.00;1.15;;;3.90;74.30;;;;;;5055894;28;20032;-73
2022/01/06 09:48:48;;;;;;;1.70;0.95;;;4.00;75.50;;;;;;5070832;28;20120;-73
2022/01/06 09:51:19;;;;;;;1.42;0.95;;;4.10;72.90;;;;;;5039276;28;20091;-73
2022/01/06 09:53:48;;;;;;;2.78;0.88;;;4.30;72.50;;;;;;5054616;28;20035;-73
2022/01/06 09:56:15;;;;;;;3.30;1.02;;;4.40;72.10;;;;;;5054662;28;20060;-72
2022/01/06 09:58:43;;;;;;;6.95;1.08;;;4.60;70.80;;;;;;5053434;28;20047;-72
2022/01/06 10:01:10;;;;;;;4.00;1.13;;;4.70;67.80;;;;;;5054859;28;20113;-73
2022/01/06 10:03:46;;;;;;;6.25;1.40;;;4.80;67.10;;;;;;5070276;28;20050;-73
2022/01/06 10:06:19;;;;;;;2.38;1.25;;;4.80;66.40;;;;;;5053274;28;20108;-72
2022/01/06 10:08:54;;;;;;;13.55;1.33;;;4.80;65.90;;;;;;5054888;28;20029;-72
2022/01/06 10:11:24;;;;;;;2.67;1.10;;;4.70;66.30;;;;;;5053375;28;20408;-72
2022/01/06 10:14:00;;;;;;;7.72;1.67;;;4.60;67.40;;;;;;5053456;28;20076;-73
2022/01/06 10:16:30;;;;;;;4.72;0.85;;;4.70;67.70;;;;;;5054754;28;20049;-73
2022/01/06 10:19:02;;;;;;;5.95;1.30;;;4.80;66.00;;;;;;5053865;28;20083;-73
2022/01/06 10:21:46;;;;;;;5.03;1.13;;;4.80;64.40;;;;;;5051249;28;20430;-72
2022/01/06 10:24:26;;;;;;;1.55;0.82;;;4.80;64.70;;;;;;5070200;28;20096;-73
2022/01/06 10:27:05;;;;;;;2.15;1.33;;;4.90;64.60;;;;;;5054747;28;20424;-73
2022/01/06 10:29:50;;;;;;;2.28;1.27;;;4.90;63.20;;;;;;5054920;28;20414;-73
2022/01/06 10:32:25;;;;;;;2.67;0.90;;;4.70;60.90;;;;;;5053780;28;20033;-72
2022/01/06 10:34:53;;;;;;;2.50;1.10;;;4.60;62.90;;;;;;5053804;28;20018;-73
2022/01/06 10:37:21;;;;;;;1.42;1.02;;;4.50;63.60;;;;;;5036906;28;20392;-74
2022/01/06 10:39:50;;;;;;;4.75;1.00;;;4.50;64.10;;;;;;5054615;28;20052;-74
2022/01/06 10:42:23;;;;;;;4.30;1.13;;;4.50;64.50;;;;;;5036608;28;20029;-73
2022/01/06 10:45:04;;;;;;;1.98;1.50;;;4.40;65.40;;;;;;5054244;28;20370;-74
2022/01/06 10:47:43;;;;;;;2.80;1.10;;;4.40;65.30;;;;;;5052685;28;20458;-74
2022/01/06 10:50:34;;;;;;;4.50;0.95;;;4.30;65.70;;;;;;5052951;28;20469;-72
2022/01/06 10:53:18;;;;;;;4.93;1.17;;;4.30;66.60;;;;;;5054380;28;20072;-72
2022/01/06 10:55:46;;;;;;;2.65;1.30;;;4.20;66.60;;;;;;5036083;28;20041;-73
2022/01/06 10:58:26;;;;;;;2.75;1.38;;;4.30;67.00;;;;;;5053488;28;20040;-74
2022/01/06 11:01:00;;;;;;;2.47;1.00;;;4.40;66.00;;;;;;5054144;28;20032;-74
2022/01/06 11:03:36;;;;;;;3.22;1.20;;;4.40;66.40;;;;;;5054313;28;20036;-73
2022/01/06 11:06:05;;;;;;;5.38;1.35;;;4.40;65.60;;;;;;5053103;28;20033;-75
2022/01/06 11:08:39;;;;;;;3.42;1.15;;;4.40;66.10;;;;;;5052704;28;20071;-73
2022/01/06 11:13:41;;;;;;;3.17;1.60;;;4.50;66.00;;;;;;5054761;28;20021;-74
2022/01/06 11:16:09;;;;;;;4.78;1.45;;;4.60;65.50;;;;;;5069132;28;20024;-71
2022/01/06 11:18:40;;;;;;;9.05;2.25;;;4.60;65.50;;;;;;5069407;28;20021;-73
2022/01/06 11:21:22;;;;;;;2.55;1.40;;;4.50;65.70;;;;;;5052728;28;20052;-73
2022/01/06 11:24:02;;;;;;;7.97;1.98;;;4.50;64.70;;;;;;5053774;28;20496;-74
2022/01/06 11:26:30;;;;;;;4.68;1.38;;;4.30;64.20;;;;;;5051272;28;20103;-74
2022/01/06 11:29:08;;;;;;;2.53;1.10;;;4.20;64.90;;;;;;5053667;28;20021;-73
2022/01/06 11:31:42;;;;;;;5.88;2.13;;;4.10;65.60;;;;;;5067663;28;20103;-73
2022/01/06 11:34:18;;;;;;;5.47;1.33;;;4.00;65.70;;;;;;5069042;28;20060;-73
2022/01/06 11:36:49;;;;;;;6.80;1.67;;;4.00;66.60;;;;;;5052252;28;20359;-74
2022/01/06 11:39:32;;;;;;;2.58;1.23;;;4.10;67.20;;;;;;5052156;28;20036;-74
2022/01/06 11:42:00;;;;;;;4.70;1.60;;;4.10;66.50;;;;;;5053712;28;20025;-73
2022/01/06 11:44:30;;;;;;;3.47;1.25;;;4.00;66.60;;;;;;5069059;28;20029;-74
2022/01/06 11:47:08;;;;;;;9.05;1.77;;;4.10;66.80;;;;;;5053734;28;20049;-73
2022/01/06 11:49:44;;;;;;;4.88;1.38;;;4.10;66.70;;;;;;5068295;28;20032;-73
2022/01/06 11:52:16;;;;;;;7.95;1.70;;;4.20;66.90;;;;;;5053333;28;20032;-73
2022/01/06 11:55:03;;;;;;;3.60;1.05;;;4.20;67.40;;;;;;5068469;28;20033;-73
2022/01/06 11:57:37;;;;;;;3.65;1.48;;;4.30;66.90;;;;;;5068489;28;20128;-75
2022/01/06 12:00:23;;;;;;;6.30;1.23;;;4.40;66.50;;;;;;5053415;28;20061;-74
2022/01/06 12:03:10;;;;;;;4.35;1.10;;;4.50;65.60;;;;;;5053137;28;20033;-72
2022/01/06 12:05:52;;;;;;;5.25;1.30;;;4.60;65.30;;;;;;5053378;28;20040;-73
2022/01/06 12:08:36;;;;;;;3.20;1.10;;;4.60;64.50;;;;;;5053043;28;20021;-73
2022/01/06 12:11:02;;;;;;;5.38;1.35;;;4.60;64.60;;;;;;5051433;28;20112;-73
2022/01/06 12:13:29;;;;;;;5.68;1.98;;;4.60;64.20;;;;;;5052212;28;20021;-73
2022/01/06 12:16:02;;;;;;;7.05;1.83;;;4.60;64.30;;;;;;5052521;28;20021;-74
2022/01/06 12:18:29;;;;;;;3.90;1.35;;;4.50;65.40;;;;;;5051946;28;20484;-73
2022/01/06 12:20:56;;;;;;;6.53;2.00;;;4.30;65.70;;;;;;5051837;28;20033;-73
2022/01/06 12:23:23;;;;;;;6.55;1.75;;;4.20;66.30;;;;;;5051964;28;20025;-73
2022/01/06 12:26:03;;;;;;;5.63;1.88;;;4.20;67.10;;;;;;5051807;28;20106;-73
2022/01/06 12:28:32;;;;;;;8.50;1.90;;;4.20;68.60;;;;;;5067454;28;20029;-74
2022/01/06 12:31:05;;;;;;;7.32;2.28;;;4.10;71.30;;;;;;5051593;28;20029;-75
2022/01/06 12:33:48;;;;;;;5.78;1.67;;;4.00;73.30;;;;;;5052431;28;20028;-71
2022/01/06 12:36:17;;;;;;;4.60;1.80;;;3.90;74.10;;;;;;5050399;28;20029;-73
2022/01/06 12:39:04;;;;;;;8.77;2.20;;;3.80;74.80;;;;;;5069484;28;20036;-72
2022/01/06 12:41:32;;;;;;;3.67;2.17;;;3.90;75.20;;;;;;5054306;28;20462;-74
2022/01/06 12:44:00;;;;;;;4.45;2.10;;;3.90;74.40;;;;;;5055738;28;20082;-73
2022/01/06 12:46:45;;;;;;;8.30;2.30;;;3.90;73.60;;;;;;5055686;28;20529;-73
2022/01/06 12:49:14;;;;;;;8.80;1.80;;;3.90;73.60;;;;;;5056685;28;20022;-73
2022/01/06 12:51:45;;;;;;;7.07;1.67;;;3.90;72.00;;;;;;5072328;28;20033;-73
2022/01/06 12:54:21;;;;;;;3.97;1.73;;;3.80;71.20;;;;;;5055003;28;20437;-72
2022/01/06 12:56:54;;;;;;;3.83;1.45;;;3.80;71.10;;;;;;5056709;28;20049;-72
2022/01/06 12:59:29;;;;;;;9.27;1.45;;;3.70;69.30;;;;;;5057872;28;20481;-72
2022/01/06 13:02:02;;;;;;;3.47;2.35;;;3.70;67.40;;;;;;5072626;28;20036;-72
2022/01/06 13:04:33;;;;;;;9.85;1.85;;;3.80;67.50;;;;;;5059595;28;20037;-73
2022/01/06 13:07:16;;;;;;;3.08;1.45;;;4.00;67.70;;;;;;5056509;28;20025;-73
2022/01/06 13:09:44;;;;;;;5.32;1.50;;;4.30;66.70;;;;;;5072244;28;20087;-72
2022/01/06 13:12:25;;;;;;;2.92;1.25;;;4.40;65.90;;;;;;5071793;28;20021;-74
2022/01/06 13:14:56;;;;;;;6.90;1.83;;;4.60;64.20;;;;;;5056003;28;20061;-74
2022/01/06 13:17:32;;;;;;;6.97;1.70;;;4.70;62.40;;;;;;5070511;28;20025;-75
2022/01/06 13:20:15;;;;;;;2.17;1.30;;;4.70;61.70;;;;;;5056401;28;20021;-74
2022/01/06 13:23:22;;;;;;;2.25;1.40;;;4.70;62.10;;;;;;5071205;28;20406;-73
2022/01/06 13:26:07;;;;;;;2.97;1.67;;;4.70;61.70;;;;;;5056593;28;20389;-73
2022/01/06 13:28:58;;;;;;;5.38;1.52;;;4.70;60.80;;;;;;5071437;28;20115;-73